createdAt,value
2023-03-01T00:01:17.333Z,1.72
2023-03-01T00:03:44.653Z,1.66
2023-03-01T00:06:12.106Z,1.66
2023-03-01T00:08:39.286Z,1.68
2023-03-01T00:11:19.359Z,1.67
2023-03-01T00:13:47.937Z,1.66
2023-03-01T00:16:18.273Z,1.64
2023-03-01T00:18:45.520Z,1.29
2023-03-01T00:21:13.585Z,1.62
2023-03-01T00:23:42.820Z,1.62
2023-03-01T00:26:13.925Z,1.58
2023-03-01T00:28:42.124Z,1.60
2023-03-01T00:31:21.247Z,1.59
2023-03-01T00:33:48.573Z,1.59
2023-03-01T00:36:16.471Z,1.58
2023-03-01T00:38:46.318Z,1.57
2023-03-01T00:41:15.846Z,1.56
2023-03-01T00:43:43.376Z,1.55
2023-03-01T00:46:16.960Z,1.55
2023-03-01T00:48:44.858Z,1.53
2023-03-01T00:51:13.150Z,1.55
2023-03-01T00:53:40.842Z,1.52
2023-03-01T00:56:09.781Z,1.45
2023-03-01T00:58:37.190Z,1.51
2023-03-01T01:01:33.470Z,1.49
2023-03-01T01:04:04.544Z,1.23
2023-03-01T01:06:35.405Z,1.49
2023-03-01T01:09:03.492Z,1.51
2023-03-01T01:11:31.137Z,1.52
2023-03-01T01:14:00.443Z,1.54
2023-03-01T01:16:29.131Z,1.54
2023-03-01T01:18:57.710Z,1.51
2023-03-01T01:21:25.573Z,1.56
2023-03-01T01:23:52.882Z,1.56
2023-03-01T01:26:25.242Z,1.53
2023-03-01T01:28:52.783Z,1.43
2023-03-01T01:31:20.555Z,1.59
2023-03-01T01:33:48.150Z,1.57
2023-03-01T01:36:15.177Z,1.61
2023-03-01T01:38:43.461Z,1.63
2023-03-01T01:41:12.501Z,1.45
2023-03-01T01:43:48.059Z,1.66
2023-03-01T01:46:35.117Z,1.67
2023-03-01T01:49:15.033Z,1.69
2023-03-01T01:51:45.545Z,1.71
2023-03-01T01:54:25.798Z,1.71
2023-03-01T01:57:07.439Z,1.73
2023-03-01T01:59:35.455Z,1.74
2023-03-01T02:02:05.004Z,1.77
2023-03-01T02:04:34.094Z,1.79
2023-03-01T02:07:15.117Z,1.80
2023-03-01T02:09:46.296Z,1.72
2023-03-01T02:12:14.960Z,1.85
2023-03-01T02:14:42.096Z,1.72
2023-03-01T02:17:09.162Z,1.89
2023-03-01T02:20:14.394Z,1.91
2023-03-01T02:22:44.413Z,1.77
2023-03-01T02:25:20.104Z,1.93
2023-03-01T02:28:08.812Z,1.96
2023-03-01T02:30:36.848Z,1.96
2023-03-01T02:33:05.586Z,1.99
2023-03-01T02:35:39.675Z,1.93
2023-03-01T02:38:09.841Z,2.02
2023-03-01T02:40:39.232Z,1.91
2023-03-01T02:43:10.002Z,2.06
2023-03-01T02:45:37.011Z,2.07
2023-03-01T02:48:04.208Z,2.09
2023-03-01T02:50:31.329Z,2.11
2023-03-01T02:53:01.018Z,2.11
2023-03-01T02:55:28.891Z,2.12
2023-03-01T02:57:58.068Z,2.15
2023-03-01T03:00:29.682Z,2.18
2023-03-01T03:02:58.325Z,2.18
2023-03-01T03:05:29.687Z,2.20
2023-03-01T03:08:00.286Z,2.23
2023-03-01T03:10:33.898Z,1.96
2023-03-01T03:13:04.662Z,2.26
2023-03-01T03:15:32.555Z,2.27
2023-03-01T03:18:00.134Z,2.04
2023-03-01T03:20:29.792Z,2.31
2023-03-01T03:22:59.245Z,2.22
2023-03-01T03:25:28.642Z,2.34
2023-03-01T03:28:00.248Z,2.28
2023-03-01T03:30:30.785Z,2.36
2023-03-01T03:32:59.609Z,2.37
2023-03-01T03:35:32.202Z,2.39
2023-03-01T03:38:07.496Z,2.40
2023-03-01T03:40:42.159Z,2.41
2023-03-01T03:43:15.716Z,2.43
2023-03-01T03:45:42.774Z,2.43
2023-03-01T03:48:11.184Z,2.46
2023-03-01T03:50:42.226Z,2.46
2023-03-01T03:53:13.193Z,2.47
2023-03-01T03:55:40.457Z,2.49
2023-03-01T03:58:10.767Z,2.47
2023-03-01T04:00:44.313Z,2.20
2023-03-01T04:03:13.058Z,2.42
2023-03-01T04:05:41.550Z,2.43
2023-03-01T04:08:09.522Z,2.54
2023-03-01T04:10:42.467Z,2.55
2023-03-01T04:13:14.171Z,2.54
2023-03-01T04:15:41.369Z,2.55
2023-03-01T04:18:09.655Z,2.51
2023-03-01T04:20:37.144Z,2.54
2023-03-01T04:23:21.050Z,2.53
2023-03-01T04:25:56.094Z,2.52
2023-03-01T04:28:37.890Z,2.09
2023-03-01T04:31:14.603Z,2.51
2023-03-01T04:33:43.250Z,2.37
2023-03-01T04:36:11.202Z,2.49
2023-03-01T04:38:39.321Z,2.50
2023-03-01T04:41:11.810Z,2.47
2023-03-01T04:43:39.187Z,2.46
2023-03-01T04:46:10.377Z,2.46
2023-03-01T04:48:42.234Z,2.43
2023-03-01T04:51:09.607Z,2.44
2023-03-01T04:53:39.746Z,2.42
2023-03-01T04:56:07.364Z,2.41
2023-03-01T04:58:34.699Z,2.08
2023-03-01T05:01:01.678Z,2.36
2023-03-01T05:03:29.157Z,2.34
2023-03-01T05:06:00.600Z,2.32
2023-03-01T05:08:28.061Z,2.30
2023-03-01T05:10:55.475Z,2.22
2023-03-01T05:13:22.845Z,2.25
2023-03-01T05:15:55.462Z,2.22
2023-03-01T05:18:26.906Z,2.03
2023-03-01T05:21:05.063Z,2.18
2023-03-01T05:23:33.596Z,2.15
2023-03-01T05:26:02.080Z,2.14
2023-03-01T05:28:29.506Z,2.12
2023-03-01T05:30:57.139Z,2.10
2023-03-01T05:33:25.094Z,2.09
2023-03-01T05:35:53.814Z,2.09
2023-03-01T05:38:21.714Z,2.09
2023-03-01T05:40:49.910Z,2.10
2023-03-01T05:43:17.869Z,2.11
2023-03-01T05:45:45.581Z,2.11
2023-03-01T05:48:13.659Z,2.08
2023-03-01T05:50:43.767Z,2.14
2023-03-01T05:53:13.494Z,2.17
2023-03-01T05:55:41.148Z,2.19
2023-03-01T05:58:15.589Z,2.21
2023-03-01T06:00:43.946Z,2.16
2023-03-01T06:03:13.490Z,2.28
2023-03-01T06:05:41.613Z,2.13
2023-03-01T06:08:11.023Z,2.32
2023-03-01T06:10:38.133Z,2.36
2023-03-01T06:13:06.245Z,2.11
2023-03-01T06:15:33.122Z,2.41
2023-03-01T06:18:00.382Z,2.44
2023-03-01T06:20:29.324Z,2.48
2023-03-01T06:22:56.858Z,2.49
2023-03-01T06:25:25.577Z,2.53
2023-03-01T06:27:53.651Z,2.55
2023-03-01T06:30:22.444Z,2.58
2023-03-01T06:32:50.241Z,2.60
2023-03-01T06:35:19.082Z,2.64
2023-03-01T06:37:48.056Z,2.67
2023-03-01T06:40:16.027Z,2.72
2023-03-01T06:42:45.242Z,2.71
2023-03-01T06:45:12.678Z,2.64
2023-03-01T06:47:39.945Z,2.80
2023-03-01T06:50:07.634Z,2.82
2023-03-01T06:52:34.730Z,2.87
2023-03-01T06:55:01.731Z,2.88
2023-03-01T06:57:29.193Z,2.90
2023-03-01T06:59:56.467Z,2.91
2023-03-01T07:02:23.848Z,2.84
2023-03-01T07:04:51.724Z,2.81
2023-03-01T07:07:19.127Z,2.79
2023-03-01T07:09:47.054Z,2.65
2023-03-01T07:12:14.198Z,3.04
2023-03-01T07:14:41.307Z,3.06
2023-03-01T07:17:08.588Z,3.09
2023-03-01T07:19:35.578Z,3.11
2023-03-01T07:22:02.576Z,2.83
2023-03-01T07:24:29.517Z,2.95
2023-03-01T07:26:56.603Z,3.19
2023-03-01T07:29:23.570Z,3.23
2023-03-01T07:31:50.528Z,3.25
2023-03-01T07:34:17.590Z,3.24
2023-03-01T07:36:46.345Z,3.30
2023-03-01T07:39:13.370Z,3.32
2023-03-01T07:41:40.376Z,3.22
2023-03-01T07:44:07.558Z,3.36
2023-03-01T07:46:34.577Z,3.39
2023-03-01T07:49:01.784Z,3.33
2023-03-01T07:51:28.797Z,3.46
2023-03-01T07:53:55.742Z,3.44
2023-03-01T07:56:23.153Z,3.51
2023-03-01T07:58:51.220Z,3.48
2023-03-01T08:01:21.154Z,3.55
2023-03-01T08:03:48.650Z,3.58
2023-03-01T08:06:17.583Z,3.62
2023-03-01T08:08:45.013Z,3.59
2023-03-01T08:11:13.492Z,3.68
2023-03-01T08:13:40.693Z,3.72
2023-03-01T08:16:11.287Z,3.75
2023-03-01T08:18:38.528Z,3.79
2023-03-01T08:21:16.733Z,3.82
2023-03-01T08:23:44.505Z,3.86
2023-03-01T08:26:18.210Z,3.64
2023-03-01T08:28:46.309Z,3.93
2023-03-01T08:31:22.280Z,3.97
2023-03-01T08:33:56.537Z,3.98
2023-03-01T08:36:29.071Z,4.03
2023-03-01T08:38:56.637Z,4.07
2023-03-01T08:41:23.821Z,4.03
2023-03-01T08:43:51.395Z,4.14
2023-03-01T08:46:18.679Z,4.18
2023-03-01T08:48:45.726Z,4.21
2023-03-01T08:51:40.562Z,4.24
2023-03-01T08:54:31.295Z,4.30
2023-03-01T08:57:18.249Z,4.33
2023-03-01T09:00:05.357Z,4.37
2023-03-01T09:02:52.196Z,4.40
2023-03-01T09:05:39.072Z,4.46
2023-03-01T09:08:26.040Z,4.49
2023-03-01T09:11:13.189Z,4.55
2023-03-01T09:14:00.537Z,4.52
2023-03-01T09:16:47.527Z,4.63
2023-03-01T09:19:34.906Z,4.69
2023-03-01T09:22:21.884Z,4.73
2023-03-01T09:25:08.775Z,4.79
2023-03-01T09:27:55.719Z,4.83
2023-03-01T09:30:43.045Z,4.79
2023-03-01T09:33:31.147Z,4.93
2023-03-01T09:36:24.128Z,4.98
2023-03-01T09:39:11.419Z,5.02
2023-03-01T09:42:15.142Z,5.07
2023-03-01T09:45:20.175Z,5.13
2023-03-01T09:48:07.258Z,5.18
2023-03-01T09:51:02.854Z,5.23
2023-03-01T09:53:54.160Z,5.20
2023-03-01T09:56:49.689Z,5.41
2023-03-01T09:59:55.748Z,5.48
2023-03-01T10:02:55.065Z,5.35
2023-03-01T10:06:08.475Z,5.66
2023-03-01T10:09:15.851Z,5.74
2023-03-01T10:12:07.915Z,5.87
2023-03-01T10:15:05.466Z,5.96
2023-03-01T10:17:59.760Z,6.07
2023-03-01T10:20:51.134Z,6.15
2023-03-01T10:23:38.131Z,6.23
2023-03-01T10:26:33.467Z,6.30
2023-03-01T10:29:28.175Z,6.05
2023-03-01T10:32:15.490Z,6.41
2023-03-01T10:35:02.392Z,6.50
2023-03-01T10:37:49.358Z,6.51
2023-03-01T10:40:36.424Z,6.60
2023-03-01T10:43:26.021Z,6.68
2023-03-01T10:46:13.038Z,6.73
2023-03-01T10:49:00.262Z,6.79
2023-03-01T10:51:47.196Z,6.85
2023-03-01T10:54:51.728Z,6.92
2023-03-01T10:57:59.430Z,7.02
2023-03-01T11:00:47.034Z,7.09
2023-03-01T11:03:37.736Z,7.17
2023-03-01T11:06:26.170Z,7.25
2023-03-01T11:09:13.167Z,7.33
2023-03-01T11:12:00.224Z,7.38
2023-03-01T11:14:50.932Z,7.46
2023-03-01T11:17:57.101Z,7.58
2023-03-01T11:20:53.205Z,7.68
2023-03-01T11:23:42.769Z,7.67
2023-03-01T11:26:30.840Z,7.83
2023-03-01T11:29:23.245Z,7.76
2023-03-01T11:32:11.598Z,8.01
2023-03-01T11:35:08.580Z,8.08
2023-03-01T11:38:11.798Z,8.16
2023-03-01T11:41:04.653Z,8.25
2023-03-01T11:44:10.162Z,8.33
2023-03-01T11:47:22.608Z,8.42
2023-03-01T11:50:28.595Z,8.51
2023-03-01T11:53:49.586Z,8.58
2023-03-01T11:56:45.179Z,8.67
2023-03-01T12:00:01.057Z,8.71
2023-03-01T12:03:06.936Z,8.82
2023-03-01T12:06:31.945Z,8.90
2023-03-01T12:09:36.385Z,8.93
2023-03-01T12:12:23.201Z,9.05
2023-03-01T12:15:22.242Z,9.12
2023-03-01T12:18:34.146Z,9.19
2023-03-01T12:21:31.209Z,9.26
2023-03-01T12:24:48.900Z,9.34
2023-03-01T12:27:42.771Z,9.40
2023-03-01T12:30:48.458Z,9.46
2023-03-01T12:33:53.850Z,9.50
2023-03-01T12:36:40.796Z,9.54
2023-03-01T12:39:33.487Z,9.57
2023-03-01T12:42:45.264Z,9.62
2023-03-01T12:45:54.700Z,9.64
2023-03-01T12:49:01.920Z,9.67
2023-03-01T12:51:52.561Z,9.68
2023-03-01T12:54:49.456Z,9.68
2023-03-01T12:58:04.114Z,9.72
2023-03-01T13:01:29.212Z,9.74
2023-03-01T13:04:35.630Z,9.75
2023-03-01T13:07:36.935Z,9.76
2023-03-01T13:10:41.022Z,9.78
2023-03-01T13:13:41.418Z,9.78
2023-03-01T13:16:57.532Z,9.78
2023-03-01T13:19:49.834Z,9.77
2023-03-01T13:22:56.950Z,9.51
2023-03-01T13:25:43.894Z,9.68
2023-03-01T13:28:55.337Z,9.75
2023-03-01T13:31:42.315Z,9.77
2023-03-01T13:35:02.118Z,9.77
2023-03-01T13:37:51.891Z,9.47
2023-03-01T13:40:41.761Z,9.81
2023-03-01T13:43:50.144Z,9.83
2023-03-01T13:46:42.370Z,9.85
2023-03-01T13:49:46.300Z,9.89
2023-03-01T13:52:59.245Z,9.91
2023-03-01T13:56:07.422Z,9.92
2023-03-01T13:59:04.955Z,9.98
2023-03-01T14:01:56.994Z,10.00
2023-03-01T14:04:54.298Z,10.02
2023-03-01T14:07:43.518Z,10.02
2023-03-01T14:10:33.860Z,9.98
2023-03-01T14:13:30.166Z,10.00
2023-03-01T14:16:35.783Z,9.97
2023-03-01T14:19:33.627Z,9.97
2023-03-01T14:22:31.841Z,9.92
2023-03-01T14:25:26.040Z,9.91
2023-03-01T14:28:42.759Z,9.89
2023-03-01T14:31:53.869Z,9.89
2023-03-01T14:34:44.269Z,9.69
2023-03-01T14:37:43.935Z,9.83
2023-03-01T14:40:46.499Z,9.80
2023-03-01T14:43:41.310Z,9.75
2023-03-01T14:46:38.728Z,9.75
2023-03-01T14:49:32.085Z,9.72
2023-03-01T14:52:27.206Z,9.64
2023-03-01T14:55:15.447Z,9.66
2023-03-01T14:58:06.022Z,9.63
2023-03-01T15:00:54.984Z,9.60
2023-03-01T15:03:55.821Z,9.57
2023-03-01T15:06:44.026Z,9.53
2023-03-01T15:09:39.266Z,9.49
2023-03-01T15:12:48.490Z,9.46
2023-03-01T15:15:43.009Z,9.42
2023-03-01T15:18:39.961Z,9.33
2023-03-01T15:21:50.810Z,9.33
2023-03-01T15:24:40.723Z,9.32
2023-03-01T15:27:39.763Z,9.00
2023-03-01T15:30:27.314Z,9.22
2023-03-01T15:33:40.899Z,9.20
2023-03-01T15:37:03.578Z,9.15
2023-03-01T15:40:13.861Z,9.09
2023-03-01T15:43:00.698Z,9.04
2023-03-01T15:45:49.929Z,9.00
2023-03-01T15:48:40.221Z,8.96
2023-03-01T15:51:34.411Z,8.90
2023-03-01T15:54:25.039Z,8.85
2023-03-01T15:57:12.131Z,8.82
2023-03-01T15:59:58.934Z,8.76
2023-03-01T16:02:46.141Z,8.53
2023-03-01T16:05:40.754Z,8.67
2023-03-01T16:08:27.803Z,8.61
2023-03-01T16:11:14.779Z,8.43
2023-03-01T16:14:01.869Z,8.53
2023-03-01T16:16:48.670Z,8.51
2023-03-01T16:19:36.514Z,8.46
2023-03-01T16:22:23.318Z,8.44
2023-03-01T16:25:10.331Z,8.39
2023-03-01T16:27:57.212Z,8.34
2023-03-01T16:30:44.296Z,8.30
2023-03-01T16:33:33.774Z,8.25
2023-03-01T16:36:27.271Z,8.21
2023-03-01T16:39:14.127Z,8.16
2023-03-01T16:42:00.973Z,8.11
2023-03-01T16:44:47.876Z,8.06
2023-03-01T16:47:34.763Z,8.02
2023-03-01T16:50:22.042Z,7.90
2023-03-01T16:53:08.891Z,7.91
2023-03-01T16:55:56.321Z,7.88
2023-03-01T16:58:43.241Z,7.83
2023-03-01T17:01:35.870Z,7.78
2023-03-01T17:04:22.829Z,7.75
2023-03-01T17:07:10.055Z,7.70
2023-03-01T17:09:58.470Z,7.52
2023-03-01T17:12:45.520Z,7.60
2023-03-01T17:15:32.379Z,7.55
2023-03-01T17:18:19.250Z,7.50
2023-03-01T17:21:06.224Z,7.46
2023-03-01T17:23:54.698Z,7.40
2023-03-01T17:26:41.495Z,7.37
2023-03-01T17:29:28.442Z,7.33
2023-03-01T17:32:15.680Z,7.28
2023-03-01T17:35:02.622Z,7.24
2023-03-01T17:37:49.594Z,7.14
2023-03-01T17:40:36.591Z,7.15
2023-03-01T17:43:23.645Z,7.09
2023-03-01T17:46:10.600Z,7.04
2023-03-01T17:48:58.178Z,6.96
2023-03-01T17:51:45.050Z,6.92
2023-03-01T17:54:32.352Z,6.91
2023-03-01T17:57:19.824Z,6.77
2023-03-01T18:00:06.983Z,6.70
2023-03-01T18:02:58.369Z,6.70
2023-03-01T18:05:45.653Z,6.62
2023-03-01T18:08:32.575Z,6.55
2023-03-01T18:11:20.519Z,6.50
2023-03-01T18:14:07.549Z,6.42
2023-03-01T18:16:54.660Z,6.39
2023-03-01T18:19:41.556Z,6.34
2023-03-01T18:22:28.924Z,6.29
2023-03-01T18:25:15.725Z,6.23
2023-03-01T18:28:02.755Z,6.19
2023-03-01T18:30:49.636Z,6.16
2023-03-01T18:33:36.508Z,6.14
2023-03-01T18:36:24.876Z,6.11
2023-03-01T18:39:12.087Z,6.08
2023-03-01T18:41:58.955Z,6.05
2023-03-01T18:44:46.248Z,6.01
2023-03-01T18:47:33.393Z,5.98
2023-03-01T18:50:20.363Z,5.96
2023-03-01T18:53:07.196Z,5.94
2023-03-01T18:55:58.481Z,5.91
2023-03-01T18:58:45.340Z,5.88
2023-03-01T19:01:38.236Z,5.85
2023-03-01T19:04:25.989Z,5.83
2023-03-01T19:07:12.890Z,5.77
2023-03-01T19:09:40.348Z,5.75
2023-03-01T19:12:07.720Z,5.56
2023-03-01T19:14:34.855Z,5.67
2023-03-01T19:17:01.822Z,5.63
2023-03-01T19:19:28.820Z,5.59
2023-03-01T19:22:05.271Z,5.39
2023-03-01T19:24:32.975Z,5.51
2023-03-01T19:26:59.964Z,5.47
2023-03-01T19:29:46.850Z,5.42
2023-03-01T19:32:33.934Z,5.37
2023-03-01T19:35:20.769Z,5.33
2023-03-01T19:38:07.842Z,5.01
2023-03-01T19:40:56.397Z,5.25
2023-03-01T19:43:44.233Z,5.25
2023-03-01T19:46:32.123Z,5.22
2023-03-01T19:49:19.220Z,5.19
2023-03-01T19:52:06.100Z,4.99
2023-03-01T19:54:58.252Z,5.15
2023-03-01T19:57:54.362Z,5.11
2023-03-01T20:00:41.834Z,4.99
2023-03-01T20:03:28.711Z,5.07
2023-03-01T20:06:15.886Z,4.68
2023-03-01T20:09:12.342Z,5.02
2023-03-01T20:12:07.529Z,4.99
2023-03-01T20:14:54.386Z,4.96
2023-03-01T20:17:42.766Z,4.95
2023-03-01T20:20:30.654Z,4.91
2023-03-01T20:23:17.827Z,4.88
2023-03-01T20:26:05.532Z,4.84
2023-03-01T20:28:52.734Z,4.79
2023-03-01T20:31:41.416Z,4.76
2023-03-01T20:34:28.440Z,4.60
2023-03-01T20:37:15.339Z,4.70
2023-03-01T20:40:02.406Z,4.67
2023-03-01T20:42:49.341Z,4.42
2023-03-01T20:45:36.333Z,4.61
2023-03-01T20:48:23.246Z,4.52
2023-03-01T20:51:10.513Z,4.53
2023-03-01T20:53:57.536Z,4.53
2023-03-01T20:56:44.741Z,4.51
2023-03-01T20:59:32.734Z,4.50
2023-03-01T21:02:19.842Z,4.47
2023-03-01T21:05:06.769Z,4.41
2023-03-01T21:07:53.897Z,4.44
2023-03-01T21:10:40.824Z,4.42
